Time;durP1;ratioP1;P1;durP2;ratioP2;P2;SDS_P1;SDS_P2;PMS_P1;PMS_P2;Temp;Humidity;BMP_temperature;BMP_pressure;BME280_temperature;BME280_humidity;BME280_pressure;Samples;Min_cycle;Max_cycle;Signal;HPM_P1;HPM_P2
2021/12/11 00:01:17;;;;;;;;;;;6.90;99.90;;;;;;4999590;28;19914;-77
2021/12/11 00:03:46;;;;;;;;;;;6.90;99.90;;;;;;5017290;28;20357;-76
2021/12/11 00:06:14;;;;;;;;;;;6.90;99.90;;;;;;5037340;28;19913;-76
2021/12/11 00:08:40;;;;;;;;;;;6.90;99.90;;;;;;5019446;28;19949;-77
2021/12/11 00:11:11;;;;;;;;;;;6.90;99.90;;;;;;5037112;28;19910;-75
2021/12/11 00:13:39;;;;;;;;;;;7.00;99.90;;;;;;5036946;28;20067;-77
2021/12/11 00:16:06;;;;;;;;;;;7.00;99.90;;;;;;5024834;28;19952;-77
2021/12/11 00:18:32;;;;;;;;;;;7.00;99.90;;;;;;5017473;28;19920;-77
2021/12/11 00:21:00;;;;;;;;;;;7.00;99.90;;;;;;5029835;28;19910;-76
2021/12/11 00:23:28;;;;;;;;;;;7.00;99.90;;;;;;5036840;28;19953;-77
2021/12/11 00:25:54;;;;;;;;;;;7.00;99.90;;;;;;5036963;28;19943;-76
2021/12/11 00:28:19;;;;;;;;;;;7.00;99.90;;;;;;5037141;28;19909;-76
2021/12/11 00:30:46;;;;;;;;;;;7.00;99.90;;;;;;5036816;28;19913;-76
2021/12/11 00:33:31;;;;;;;;;;;7.00;99.90;;;;;;5037014;28;19909;-77
2021/12/11 00:35:57;;;;;;;;;;;7.00;99.90;;;;;;5019138;28;19933;-76
2021/12/11 00:38:25;;;;;;;;;;;7.00;99.90;;;;;;5040014;28;20365;-77
2021/12/11 00:40:51;;;;;;;;;;;7.00;99.90;;;;;;5022688;28;19932;-77
2021/12/11 00:43:20;;;;;;;;;;;7.00;99.90;;;;;;5040703;28;19916;-77
2021/12/11 00:45:48;;;;;;;;;;;7.00;99.90;;;;;;5040399;28;20380;-76
2021/12/11 00:48:15;;;;;;;;;;;7.00;99.90;;;;;;5040505;28;20403;-78
2021/12/11 00:50:46;;;;;;;;;;;7.10;99.90;;;;;;5040322;28;19909;-76
2021/12/11 00:53:14;;;;;;;;;;;7.00;99.90;;;;;;5039630;28;19909;-76
2021/12/11 00:55:42;;;;;;;;;;;7.00;99.90;;;;;;5023027;28;19909;-77
2021/12/11 00:58:10;;;;;;;;;;;7.00;99.90;;;;;;5016033;28;19910;-76
2021/12/11 01:00:38;;;;;;;;;;;7.00;99.90;;;;;;5020192;28;19972;-78
2021/12/11 01:03:04;;;;;;;;;;;7.00;99.90;;;;;;5002918;28;20015;-77
2021/12/11 01:05:35;;;;;;;;;;;7.00;99.90;;;;;;5020299;28;20357;-77
2021/12/11 01:08:10;;;;;;;;;;;6.90;99.90;;;;;;5020350;28;19911;-77
2021/12/11 01:10:36;;;;;;;;;;;6.90;99.90;;;;;;5020151;28;19940;-78
2021/12/11 01:13:04;;;;;;;;;;;6.80;99.90;;;;;;5034025;28;20008;-76
2021/12/11 01:15:32;;;;;;;;;;;6.90;99.90;;;;;;5032456;28;19913;-77
2021/12/11 01:18:21;;;;;;;;;;;6.80;99.90;;;;;;5018791;28;19914;-78
2021/12/11 01:23:45;;;;;;;;;;;6.80;99.90;;;;;;5039933;28;19980;-75
2021/12/11 01:26:12;;;;;;;;;;;6.80;99.90;;;;;;5039686;28;19916;-76
2021/12/11 01:28:38;;;;;;;;;;;6.80;99.90;;;;;;5039890;28;20296;-79
2021/12/11 01:31:05;;;;;;;;;;;6.80;99.90;;;;;;5038144;28;20004;-78
2021/12/11 01:33:31;;;;;;;;;;;6.80;99.90;;;;;;5021888;28;19909;-78
2021/12/11 01:35:57;;;;;;;;;;;6.80;99.90;;;;;;5005972;28;20004;-78
2021/12/11 01:38:26;;;;;;;;;;;6.80;99.90;;;;;;5018519;28;19963;-79
2021/12/11 01:40:55;;;;;;;;;;;6.80;99.90;;;;;;5018187;28;19980;-77
2021/12/11 01:43:22;;;;;;;;;;;6.70;99.90;;;;;;5018482;28;19909;-78
2021/12/11 01:45:49;;;;;;;;;;;6.80;99.90;;;;;;5001732;28;19917;-78
2021/12/11 01:48:16;;;;;;;;;;;6.70;99.90;;;;;;5018987;28;19916;-79
2021/12/11 01:50:45;;;;;;;;;;;6.70;99.90;;;;;;5001885;28;19910;-78
2021/12/11 01:53:14;;;;;;;;;;;6.70;99.90;;;;;;5019491;28;19917;-78
2021/12/11 01:55:54;;;;;;;;;;;6.70;99.90;;;;;;5019207;28;19917;-78
2021/12/11 01:58:37;;;;;;;;;;;6.70;99.90;;;;;;5019343;28;20399;-77
2021/12/11 02:01:06;;;;;;;;;;;6.70;99.90;;;;;;5028081;28;20395;-78
2021/12/11 02:03:32;;;;;;;;;;;6.70;99.90;;;;;;5038979;28;19936;-79
2021/12/11 02:05:58;;;;;;;;;;;6.70;99.90;;;;;;5039090;28;19917;-79
2021/12/11 02:08:29;;;;;;;;;;;6.70;99.90;;;;;;5039050;28;19913;-78
2021/12/11 02:10:54;;;;;;;;;;;6.70;99.90;;;;;;5021040;28;19956;-78
2021/12/11 02:13:34;;;;;;;;;;;6.70;99.90;;;;;;5021016;28;19926;-78
2021/12/11 02:16:00;;;;;;;;;;;6.70;99.90;;;;;;5009141;28;20428;-78
2021/12/11 02:18:34;;;;;;;;;;;6.70;99.90;;;;;;5001496;28;19917;-78
2021/12/11 02:21:02;;;;;;;;;;;6.70;99.90;;;;;;5032283;28;19984;-78
2021/12/11 02:23:28;;;;;;;;;;;6.70;99.90;;;;;;5020927;28;19920;-78
2021/12/11 02:25:55;;;;;;;;;;;6.70;99.90;;;;;;5038551;28;19909;-78
2021/12/11 02:28:23;;;;;;;;;;;6.60;99.90;;;;;;5021066;28;19944;-78
2021/12/11 02:31:07;;;;;;;;;;;6.60;99.90;;;;;;5020844;28;20361;-79
2021/12/11 02:33:39;;;;;;;;;;;6.60;99.90;;;;;;5037306;28;20281;-78
2021/12/11 02:36:12;;;;;;;;;;;6.70;99.90;;;;;;5038388;28;19952;-78
2021/12/11 02:38:43;;;;;;;;;;;6.60;99.90;;;;;;5020721;28;19913;-78
2021/12/11 02:41:11;;;;;;;;;;;6.60;99.90;;;;;;5038213;28;19952;-78
2021/12/11 02:43:43;;;;;;;;;;;6.70;99.90;;;;;;5023527;28;19917;-77
2021/12/11 02:46:17;;;;;;;;;;;6.70;99.90;;;;;;5025344;28;19909;-78
2021/12/11 02:48:47;;;;;;;;;;;6.70;99.90;;;;;;5038107;28;19920;-79
2021/12/11 02:51:13;;;;;;;;;;;6.70;99.90;;;;;;5020517;28;19958;-76
2021/12/11 02:53:41;;;;;;;;;;;6.70;99.90;;;;;;5037970;28;19996;-79
2021/12/11 02:56:13;;;;;;;;;;;6.70;99.90;;;;;;5020609;28;19916;-78
2021/12/11 02:58:41;;;;;;;;;;;6.70;99.90;;;;;;5037864;28;19913;-78
2021/12/11 03:01:10;;;;;;;;;;;6.70;99.90;;;;;;5019436;28;20377;-78
2021/12/11 03:03:41;;;;;;;;;;;6.70;99.90;;;;;;5020065;28;19971;-78
2021/12/11 03:06:15;;;;;;;;;;;6.60;99.90;;;;;;5036739;28;19964;-78
2021/12/11 03:08:41;;;;;;;;;;;6.70;99.90;;;;;;5020078;28;19909;-79
2021/12/11 03:11:10;;;;;;;;;;;6.60;99.90;;;;;;5037800;28;19909;-81
2021/12/11 03:13:38;;;;;;;;;;;6.60;99.90;;;;;;5037541;28;20392;-79
2021/12/11 03:16:05;;;;;;;;;;;6.60;99.90;;;;;;5007880;28;19909;-79
2021/12/11 03:18:30;;;;;;;;;;;6.60;99.90;;;;;;5000513;28;19921;-79
2021/12/11 03:20:56;;;;;;;;;;;6.60;99.90;;;;;;5030286;28;19909;-79
2021/12/11 03:23:22;;;;;;;;;;;6.60;99.90;;;;;;5037572;28;20000;-79
2021/12/11 03:25:47;;;;;;;;;;;6.60;99.90;;;;;;5037761;28;20047;-79
2021/12/11 03:28:15;;;;;;;;;;;6.60;99.90;;;;;;5019753;28;19913;-78
2021/12/11 03:30:43;;;;;;;;;;;6.60;99.90;;;;;;5037452;28;20297;-80
2021/12/11 03:33:15;;;;;;;;;;;6.50;99.90;;;;;;5036212;28;20337;-77
2021/12/11 03:35:40;;;;;;;;;;;6.50;99.90;;;;;;5037568;28;19967;-78
2021/12/11 03:38:07;;;;;;;;;;;6.50;99.90;;;;;;5036299;28;19909;-79
2021/12/11 03:40:33;;;;;;;;;;;6.50;99.90;;;;;;5037390;28;19941;-78
2021/12/11 03:43:00;;;;;;;;;;;6.50;99.90;;;;;;5037700;28;20395;-79
2021/12/11 03:45:28;;;;;;;;;;;6.50;99.90;;;;;;5037154;28;19981;-79
2021/12/11 03:48:00;;;;;;;;;;;6.50;99.90;;;;;;5037403;28;19924;-78
2021/12/11 03:50:26;;;;;;;;;;;6.50;99.90;;;;;;5037419;28;19946;-79
2021/12/11 03:52:54;;;;;;;;;;;6.50;99.90;;;;;;5037492;28;19913;-79
2021/12/11 03:55:25;;;;;;;;;;;6.50;99.90;;;;;;5037288;28;19909;-78
2021/12/11 03:57:57;;;;;;;;;;;6.50;99.90;;;;;;5037517;28;19916;-78
2021/12/11 04:00:24;;;;;;;;;;;6.50;99.90;;;;;;5036971;28;19913;-79
2021/12/11 04:02:52;;;;;;;;;;;6.50;99.90;;;;;;5037441;28;19909;-79
2021/12/11 04:05:17;;;;;;;;;;;6.50;99.90;;;;;;5019718;28;19955;-80
2021/12/11 04:07:50;;;;;;;;;;;6.50;99.90;;;;;;5037521;28;19949;-80
2021/12/11 04:10:17;;;;;;;;;;;6.50;99.90;;;;;;5037024;28;19913;-79
2021/12/11 04:12:43;;;;;;;;;;;6.50;99.90;;;;;;5040931;28;20301;-80
2021/12/11 04:15:09;;;;;;;;;;;6.60;99.90;;;;;;5036287;28;20020;-80
2021/12/11 04:17:35;;;;;;;;;;;6.60;99.90;;;;;;5021452;28;19945;-79
2021/12/11 04:20:03;;;;;;;;;;;6.60;99.90;;;;;;5025709;28;19920;-79
2021/12/11 04:22:29;;;;;;;;;;;6.50;99.90;;;;;;5040943;28;19913;-78
2021/12/11 04:24:55;;;;;;;;;;;6.50;99.90;;;;;;5023471;28;20008;-79
2021/12/11 04:27:21;;;;;;;;;;;6.50;99.90;;;;;;5023021;28;19909;-79
2021/12/11 04:29:49;;;;;;;;;;;6.50;99.90;;;;;;5040533;28;19916;-79
2021/12/11 04:32:15;;;;;;;;;;;6.50;99.90;;;;;;5023117;28;19910;-78
2021/12/11 04:34:41;;;;;;;;;;;6.50;99.90;;;;;;5040682;28;19916;-79
2021/12/11 04:37:15;;;;;;;;;;;6.50;99.90;;;;;;5040769;28;19953;-79
2021/12/11 04:39:42;;;;;;;;;;;6.50;99.90;;;;;;5040477;28;19913;-79
2021/12/11 04:42:24;;;;;;;;;;;6.50;99.90;;;;;;5040558;28;19909;-79
2021/12/11 04:44:50;;;;;;;;;;;6.50;99.90;;;;;;5022649;28;20305;-80
2021/12/11 04:47:28;;;;;;;;;;;6.50;99.90;;;;;;5040452;28;19909;-78
2021/12/11 04:49:58;;;;;;;;;;;6.50;99.90;;;;;;5039284;28;19909;-79
2021/12/11 04:52:34;;;;;;;;;;;6.50;99.90;;;;;;5022657;28;19909;-78
2021/12/11 04:58:12;;;;;;;;;;;6.50;99.90;;;;;;5040657;28;20005;-80
2021/12/11 05:03:46;;;;;;;;;;;6.50;99.90;;;;;;5040576;28;19909;-78
2021/12/11 05:11:36;;;;;;;;;;;6.30;99.90;;;;;;5040174;28;19952;-79
2021/12/11 05:14:04;;;;;;;;;;;6.30;99.90;;;;;;5018582;28;19922;-80
2021/12/11 05:16:29;;;;;;;;;;;6.30;99.90;;;;;;5004094;28;19913;-79
2021/12/11 05:18:55;;;;;;;;;;;6.30;99.90;;;;;;5000904;28;19925;-79
2021/12/11 05:21:21;;;;;;;;;;;6.20;99.90;;;;;;5030960;28;19952;-79
2021/12/11 05:23:48;;;;;;;;;;;6.20;99.90;;;;;;5034408;28;19913;-78
2021/12/11 05:26:14;;;;;;;;;;;6.20;99.90;;;;;;5034990;28;19949;-81
2021/12/11 05:28:39;;;;;;;;;;;6.20;99.90;;;;;;5020260;28;19909;-79
2021/12/11 05:31:07;;;;;;;;;;;6.20;99.90;;;;;;5019702;28;19921;-77
2021/12/11 05:33:32;;;;;;;;;;;6.10;99.90;;;;;;5020005;28;20737;-79
2021/12/11 05:35:58;;;;;;;;;;;6.10;99.90;;;;;;5019715;28;19957;-79
2021/12/11 05:38:25;;;;;;;;;;;6.00;99.90;;;;;;5033876;28;20044;-79
2021/12/11 05:40:53;;;;;;;;;;;6.00;99.90;;;;;;5003970;28;20263;-78
2021/12/11 05:43:19;;;;;;;;;;;6.00;99.90;;;;;;5000182;28;19966;-78
2021/12/11 05:45:45;;;;;;;;;;;5.90;99.90;;;;;;4999769;28;19910;-78
2021/12/11 05:48:10;;;;;;;;;;;6.00;99.90;;;;;;5000008;28;19910;-78
2021/12/11 05:50:41;;;;;;;;;;;5.90;99.90;;;;;;5014873;28;20500;-79
2021/12/11 05:53:07;;;;;;;;;;;5.90;99.90;;;;;;4999973;28;19910;-78
2021/12/11 05:55:33;;;;;;;;;;;5.90;99.90;;;;;;5014641;28;19942;-77
2021/12/11 05:58:01;;;;;;;;;;;5.90;99.90;;;;;;5014852;28;19909;-79
2021/12/11 06:00:30;;;;;;;;;;;5.80;99.90;;;;;;5001067;28;20397;-79
2021/12/11 06:02:56;;;;;;;;;;;5.80;99.90;;;;;;5019350;28;20274;-79
2021/12/11 06:05:22;;;;;;;;;;;5.80;99.90;;;;;;5019208;28;19948;-78
2021/12/11 06:07:48;;;;;;;;;;;5.90;99.90;;;;;;5018603;28;19929;-79
2021/12/11 06:10:16;;;;;;;;;;;5.90;99.90;;;;;;5017613;28;20279;-79
2021/12/11 06:12:42;;;;;;;;;;;5.80;99.90;;;;;;5026064;28;19947;-79
2021/12/11 06:15:08;;;;;;;;;;;5.70;99.90;;;;;;5038051;28;20009;-79
2021/12/11 06:17:34;;;;;;;;;;;5.70;99.90;;;;;;5038229;28;20293;-79
2021/12/11 06:20:01;;;;;;;;;;;5.70;99.90;;;;;;5020602;28;19963;-79
2021/12/11 06:22:29;;;;;;;;;;;5.60;99.90;;;;;;5020371;28;19969;-79
2021/12/11 06:24:56;;;;;;;;;;;5.60;99.90;;;;;;5020500;28;20175;-79
2021/12/11 06:27:22;;;;;;;;;;;5.60;99.90;;;;;;5037998;28;19956;-79
2021/12/11 06:29:48;;;;;;;;;;;5.50;99.90;;;;;;5037739;28;19909;-79
2021/12/11 06:32:13;;;;;;;;;;;5.50;99.90;;;;;;5020248;28;19915;-79
2021/12/11 06:34:39;;;;;;;;;;;5.50;99.90;;;;;;5020725;28;19909;-79
2021/12/11 06:37:06;;;;;;;;;;;5.50;99.90;;;;;;5038556;28;19917;-79
2021/12/11 06:39:32;;;;;;;;;;;5.40;99.90;;;;;;5031717;28;19914;-78
2021/12/11 06:41:59;;;;;;;;;;;5.40;99.90;;;;;;5018605;28;20267;-80
2021/12/11 06:44:28;;;;;;;;;;;5.40;99.90;;;;;;5018193;28;19916;-79
2021/12/11 06:47:01;;;;;;;;;;;5.40;99.90;;;;;;5000782;28;19916;-79
2021/12/11 06:49:28;;;;;;;;;;;5.40;99.90;;;;;;5007968;28;19909;-79
2021/12/11 06:51:53;;;;;;;;;;;5.40;99.90;;;;;;5038061;28;19916;-79
2021/12/11 06:54:19;;;;;;;;;;;5.40;99.90;;;;;;5038237;28;19909;-78
2021/12/11 06:56:45;;;;;;;;;;;5.30;99.90;;;;;;5020548;28;19949;-77
2021/12/11 06:59:11;;;;;;;;;;;5.40;99.90;;;;;;5020034;28;19936;-77
2021/12/11 07:01:37;;;;;;;;;;;5.50;99.90;;;;;;5037934;28;19910;-77
2021/12/11 07:04:05;;;;;;;;;;;5.50;99.90;;;;;;5020327;28;19932;-77
2021/12/11 07:06:31;;;;;;;;;;;5.50;99.90;;;;;;5020350;28;19917;-76
2021/12/11 07:08:58;;;;;;;;;;;5.50;99.90;;;;;;5038028;28;19910;-76
2021/12/11 07:11:23;;;;;;;;;;;5.50;99.90;;;;;;5036260;28;19909;-77
2021/12/11 07:13:49;;;;;;;;;;;5.50;99.90;;;;;;5037387;28;19929;-77
2021/12/11 07:16:15;;;;;;;;;;;5.50;99.90;;;;;;5006431;28;19913;-79
2021/12/11 07:18:43;;;;;;;;;;;5.50;99.90;;;;;;5017752;28;20289;-79
2021/12/11 07:21:09;;;;;;;;;;;5.50;99.90;;;;;;5029067;28;20388;-78
2021/12/11 07:23:36;;;;;;;;;;;5.50;99.90;;;;;;5000267;28;19914;-77
2021/12/11 07:26:01;;;;;;;;;;;5.50;99.90;;;;;;5000094;28;19909;-80
2021/12/11 07:28:27;;;;;;;;;;;5.50;99.90;;;;;;5021414;28;20457;-78
2021/12/11 07:30:55;;;;;;;;;;;5.50;99.90;;;;;;5038161;28;19916;-78
2021/12/11 07:33:21;;;;;;;;;;;5.50;99.90;;;;;;5020146;28;20369;-76
2021/12/11 07:35:47;;;;;;;;;;;5.50;99.90;;;;;;5037410;28;19932;-76
2021/12/11 07:38:13;;;;;;;;;;;5.50;99.90;;;;;;5029971;28;19909;-77
2021/12/11 07:40:41;;;;;;;;;;;5.60;99.90;;;;;;5010500;28;19917;-77
2021/12/11 07:43:07;;;;;;;;;;;5.60;99.90;;;;;;5019749;28;19910;-76
2021/12/11 07:45:33;;;;;;;;;;;5.60;99.90;;;;;;5020355;28;20346;-76
2021/12/11 07:47:59;;;;;;;;;;;5.60;99.90;;;;;;5043367;28;20365;-77
2021/12/11 07:50:25;;;;;;;;;;;5.60;99.90;;;;;;5043813;28;20008;-75
2021/12/11 07:52:50;;;;;;;;;;;5.60;99.90;;;;;;5044297;28;19959;-76
2021/12/11 07:55:16;;;;;;;;;;;5.80;99.90;;;;;;5026113;28;19909;-75
2021/12/11 07:57:43;;;;;;;;;;;5.80;99.90;;;;;;5044150;28;19963;-76
2021/12/11 08:00:10;;;;;;;;;;;5.80;99.90;;;;;;5025776;28;19935;-76
2021/12/11 08:02:35;;;;;;;;;;;5.80;99.90;;;;;;5044158;28;19920;-76
2021/12/11 08:05:01;;;;;;;;;;;5.90;99.90;;;;;;5043788;28;19909;-76
2021/12/11 08:07:27;;;;;;;;;;;5.90;99.90;;;;;;5044071;28;19915;-76
2021/12/11 08:09:52;;;;;;;;;;;5.90;99.90;;;;;;5043735;28;19963;-76
2021/12/11 08:12:18;;;;;;;;;;;5.90;99.90;;;;;;5043522;28;20001;-76
2021/12/11 08:14:44;;;;;;;;;;;6.00;99.90;;;;;;5042213;28;19949;-76
2021/12/11 08:17:10;;;;;;;;;;;6.00;99.90;;;;;;5024094;28;20000;-76
2021/12/11 08:19:36;;;;;;;;;;;6.00;99.90;;;;;;5016233;28;19966;-76
2021/12/11 08:22:03;;;;;;;;;;;6.00;99.90;;;;;;5043934;28;19909;-76
2021/12/11 08:24:29;;;;;;;;;;;6.10;99.90;;;;;;5043742;28;19909;-77
2021/12/11 08:26:57;;;;;;;;;;;6.10;99.90;;;;;;5025991;28;19909;-77
2021/12/11 08:29:22;;;;;;;;;;;6.10;99.90;;;;;;5023127;28;19953;-76
2021/12/11 08:31:50;;;;;;;;;;;6.20;99.90;;;;;;5006344;28;20428;-76
2021/12/11 08:34:15;;;;;;;;;;;6.30;99.90;;;;;;5022473;28;19916;-77
2021/12/11 08:36:43;;;;;;;;;;;6.30;99.90;;;;;;5023957;28;20441;-77
2021/12/11 08:39:10;;;;;;;;;;;6.40;99.90;;;;;;5006050;28;20803;-76
2021/12/11 08:41:37;;;;;;;;;;;6.40;99.90;;;;;;5023730;28;19968;-77
2021/12/11 08:44:08;;;;;;;;;;;6.50;99.90;;;;;;5023486;28;20000;-76
2021/12/11 08:46:34;;;;;;;;;;;6.50;99.90;;;;;;5005929;28;19916;-77
2021/12/11 08:49:02;;;;;;;;;;;6.60;99.90;;;;;;5005952;28;19909;-77
2021/12/11 08:51:38;;;;;;;;;;;6.60;99.90;;;;;;5023798;28;19910;-77
2021/12/11 08:54:05;;;;;;;;;;;6.70;99.90;;;;;;5023529;28;19910;-76
2021/12/11 08:56:31;;;;;;;;;;;6.70;99.90;;;;;;5023701;28;19916;-77
2021/12/11 08:58:56;;;;;;;;;;;6.70;99.90;;;;;;5018937;28;19917;-77
2021/12/11 09:01:24;;;;;;;;;;;6.80;99.90;;;;;;5029578;28;19932;-76
2021/12/11 09:03:57;;;;;;;;;;;6.80;99.90;;;;;;5020948;28;19910;-77
2021/12/11 09:06:28;;;;;;;;;;;6.80;99.90;;;;;;5020477;28;19909;-77
2021/12/11 09:09:09;;;;;;;;;;;6.90;99.90;;;;;;5009652;28;19915;-77
2021/12/11 09:11:40;;;;;;;;;;;7.00;99.90;;;;;;5039814;28;20000;-77
2021/12/11 09:14:05;;;;;;;;;;;7.00;99.90;;;;;;5039577;28;19923;-77
2021/12/11 09:16:38;;;;;;;;;;;7.10;99.90;;;;;;5023988;28;20433;-77
2021/12/11 09:19:08;;;;;;;;;;;7.10;99.90;;;;;;5020446;28;20012;-77
2021/12/11 09:21:38;;;;;;;;;;;7.20;99.90;;;;;;5037027;28;19913;-77
2021/12/11 09:24:07;;;;;;;;;;;7.20;99.90;;;;;;5039865;28;19916;-77
2021/12/11 09:26:39;;;;;;;;;;;7.20;99.90;;;;;;5039444;28;20395;-76
2021/12/11 09:29:14;;;;;;;;;;;7.30;99.90;;;;;;5039563;28;20296;-77
2021/12/11 09:31:43;;;;;;;;;;;7.30;99.90;;;;;;5039949;28;19916;-77
2021/12/11 09:34:12;;;;;;;;;;;7.40;99.90;;;;;;5037714;28;19916;-77
2021/12/11 09:36:41;;;;;;;;;;;7.50;99.90;;;;;;5004689;28;20026;-77
2021/12/11 09:39:10;;;;;;;;;;;7.50;99.90;;;;;;5021580;28;19952;-79
2021/12/11 09:41:36;;;;;;;;;;;7.60;99.90;;;;;;5039503;28;19913;-78
2021/12/11 09:44:15;;;;;;;;;;;7.60;99.90;;;;;;5039108;28;19963;-77
2021/12/11 09:46:43;;;;;;;;;;;7.70;99.90;;;;;;5021774;28;19909;-77
2021/12/11 09:49:10;;;;;;;;;;;7.80;99.90;;;;;;5039395;28;19916;-78
2021/12/11 09:51:40;;;;;;;;;;;7.90;99.90;;;;;;5039520;28;19944;-77
2021/12/11 09:54:12;;;;;;;;;;;8.00;99.90;;;;;;5037884;28;20324;-78
2021/12/11 09:56:58;;;;;;;;;;;8.10;99.90;;;;;;5039218;28;20297;-78
2021/12/11 09:59:24;;;;;;;;;;;8.10;99.90;;;;;;5038691;28;19914;-78
2021/12/11 10:01:55;;;;;;;;;;;8.20;99.90;;;;;;5039126;28;19916;-78
2021/12/11 10:04:28;;;;;;;;;;;8.10;99.90;;;;;;5021164;28;19988;-78
2021/12/11 10:09:26;;;;;;;;;;;8.10;99.90;;;;;;5038953;28;19910;-78
2021/12/11 10:12:10;;;;;;;;;;;8.20;99.90;;;;;;5038503;28;19909;-78
2021/12/11 10:14:41;;;;;;;;;;;8.10;99.90;;;;;;5020565;28;19917;-77
2021/12/11 10:17:09;;;;;;;;;;;8.20;99.90;;;;;;5017760;28;19917;-78
2021/12/11 10:19:36;;;;;;;;;;;8.30;99.90;;;;;;5019311;28;19925;-79
2021/12/11 10:22:09;;;;;;;;;;;8.40;99.90;;;;;;5038725;28;19909;-79
2021/12/11 10:24:35;;;;;;;;;;;8.40;99.90;;;;;;5038657;28;19909;-78
2021/12/11 10:27:03;;;;;;;;;;;8.50;99.90;;;;;;5038617;28;19909;-78
2021/12/11 10:29:28;;;;;;;;;;;8.50;99.90;;;;;;5020529;28;19917;-79
2021/12/11 10:31:56;;;;;;;;;;;8.60;99.90;;;;;;5038894;28;19917;-79
2021/12/11 10:34:23;;;;;;;;;;;8.60;99.90;;;;;;5038516;28;19916;-78
2021/12/11 10:36:55;;;;;;;;;;;8.60;99.90;;;;;;5027643;28;19914;-79
2021/12/11 10:39:21;;;;;;;;;;;8.60;99.90;;;;;;5018741;28;19956;-79
2021/12/11 10:41:47;;;;;;;;;;;8.60;99.90;;;;;;5018554;28;20386;-79
2021/12/11 10:44:16;;;;;;;;;;;8.70;99.90;;;;;;5018267;28;19917;-80
2021/12/11 10:46:46;;;;;;;;;;;8.80;99.90;;;;;;5018590;28;20251;-78
2021/12/11 10:49:12;;;;;;;;;;;8.90;99.90;;;;;;5018619;28;19910;-79
2021/12/11 10:51:41;;;;;;;;;;;9.00;99.90;;;;;;5018621;28;20378;-79
2021/12/11 10:54:08;;;;;;;;;;;9.10;99.90;;;;;;5018286;28;20352;-78
2021/12/11 10:56:33;;;;;;;;;;;9.20;99.90;;;;;;5018334;28;20370;-79
2021/12/11 10:59:01;;;;;;;;;;;9.30;99.90;;;;;;5017975;28;19936;-79
2021/12/11 11:01:29;;;;;;;;;;;9.40;99.90;;;;;;5018354;28;19933;-78
2021/12/11 11:03:57;;;;;;;;;;;9.40;99.90;;;;;;5016883;28;20004;-79
2021/12/11 11:06:23;;;;;;;;;;;9.50;99.90;;;;;;5018164;28;20325;-78
2021/12/11 11:08:49;;;;;;;;;;;9.60;99.90;;;;;;5018814;28;19909;-79
2021/12/11 11:11:16;;;;;;;;;;;9.50;99.90;;;;;;5000394;28;19917;-78
2021/12/11 11:13:44;;;;;;;;;;;9.40;99.90;;;;;;5037128;28;20364;-79
2021/12/11 11:16:10;;;;;;;;;;;9.30;99.90;;;;;;5024901;28;19915;-78
2021/12/11 11:18:36;;;;;;;;;;;9.10;99.90;;;;;;5018255;28;20249;-79
2021/12/11 11:21:12;;;;;;;;;;;9.00;99.90;;;;;;5030590;28;19995;-78
2021/12/11 11:23:38;;;;;;;;;;;8.90;99.90;;;;;;5037883;28;20365;-79
2021/12/11 11:26:08;;;;;;;;;;;8.80;99.90;;;;;;5037521;28;19909;-79
2021/12/11 11:28:35;;;;;;;;;;;8.90;99.90;;;;;;5037614;28;19909;-79
2021/12/11 11:31:03;;;;;;;;;;;8.90;99.90;;;;;;5019931;28;20418;-78
2021/12/11 11:33:29;;;;;;;;;;;9.00;99.90;;;;;;5037803;28;19955;-78
2021/12/11 11:35:57;;;;;;;;;;;9.00;99.90;;;;;;5037550;28;20011;-78
2021/12/11 11:38:25;;;;;;;;;;;9.10;99.90;;;;;;5037825;28;19909;-78
2021/12/11 11:40:53;;;;;;;;;;;9.10;99.90;;;;;;5037253;28;19921;-78
2021/12/11 11:43:19;;;;;;;;;;;9.10;99.90;;;;;;5037728;28;19952;-78
2021/12/11 11:45:46;;;;;;;;;;;9.00;99.90;;;;;;5037194;28;19920;-78
2021/12/11 11:48:12;;;;;;;;;;;9.00;99.90;;;;;;5037587;28;19909;-81
2021/12/11 11:50:44;;;;;;;;;;;9.00;99.90;;;;;;5037417;28;19940;-81
2021/12/11 11:53:10;;;;;;;;;;;9.00;99.90;;;;;;5019818;28;19909;-79
2021/12/11 11:55:38;;;;;;;;;;;9.10;99.90;;;;;;5019448;28;20673;-79
2021/12/11 11:58:05;;;;;;;;;;;9.30;99.90;;;;;;5037591;28;19916;-78
2021/12/11 12:00:43;;;;;;;;;;;9.40;99.90;;;;;;5036899;28;19913;-78
2021/12/11 12:03:09;;;;;;;;;;;9.40;99.90;;;;;;5037573;28;19909;-79
2021/12/11 12:05:36;;;;;;;;;;;9.50;99.90;;;;;;5037443;28;20004;-78
2021/12/11 12:08:03;;;;;;;;;;;9.40;99.90;;;;;;5036986;28;19963;-79
2021/12/11 12:10:28;;;;;;;;;;;9.40;99.90;;;;;;5030233;28;19909;-79
2021/12/11 12:12:54;;;;;;;;;;;9.50;99.90;;;;;;5030227;28;19924;-78
2021/12/11 12:15:25;;;;;;;;;;;9.50;99.90;;;;;;5030656;28;19910;-78
2021/12/11 12:17:50;;;;;;;;;;;9.70;99.90;;;;;;5017485;28;19910;-79
2021/12/11 12:20:17;;;;;;;;;;;9.80;99.90;;;;;;5024763;28;19924;-79
2021/12/11 12:22:44;;;;;;;;;;;9.90;99.90;;;;;;5037308;28;20393;-78
2021/12/11 12:25:10;;;;;;;;;;;10.00;99.90;;;;;;5019517;28;19944;-78
2021/12/11 12:27:38;;;;;;;;;;;10.00;99.90;;;;;;5036944;28;19920;-79
2021/12/11 12:30:11;;;;;;;;;;;10.00;99.90;;;;;;5036990;28;19909;-79
2021/12/11 12:32:36;;;;;;;;;;;9.90;99.90;;;;;;5037543;28;19959;-78
2021/12/11 12:35:06;;;;;;;;;;;9.80;99.90;;;;;;5040848;28;19909;-79
2021/12/11 12:37:32;;;;;;;;;;;9.80;99.90;;;;;;5040706;28;19917;-79
2021/12/11 12:40:00;;;;;;;;;;;9.80;99.90;;;;;;5040772;28;19913;-78
2021/12/11 12:42:32;;;;;;;;;;;9.90;99.90;;;;;;5040615;28;20369;-78
2021/12/11 12:45:02;;;;;;;;;;;9.90;99.90;;;;;;5040680;28;19916;-79
2021/12/11 12:47:29;;;;;;;;;;;9.90;99.90;;;;;;5040545;28;20451;-78
2021/12/11 12:49:56;;;;;;;;;;;10.00;99.90;;;;;;5040629;28;20289;-79
2021/12/11 12:52:43;;;;;;;;;;;10.00;99.90;;;;;;5040565;28;19909;-80
2021/12/11 12:55:12;;;;;;;;;;;10.20;99.90;;;;;;5027613;28;19914;-78
2021/12/11 12:57:39;;;;;;;;;;;10.30;99.90;;;;;;5020596;28;19909;-78
2021/12/11 13:00:25;;;;;;;;;;;10.30;99.90;;;;;;5018949;28;20477;-79
2021/12/11 13:02:53;;;;;;;;;;;10.30;99.90;;;;;;5020640;28;20408;-79
2021/12/11 13:05:23;;;;;;;;;;;10.30;99.90;;;;;;5020531;28;20000;-79
2021/12/11 13:07:50;;;;;;;;;;;10.30;99.90;;;;;;5019196;28;19909;-79
2021/12/11 13:10:18;;;;;;;;;;;10.30;99.90;;;;;;5030883;28;19909;-80
2021/12/11 13:12:45;;;;;;;;;;;10.30;99.90;;;;;;5031707;28;19917;-80
2021/12/11 13:15:22;;;;;;;;;;;10.20;99.90;;;;;;5034933;28;19931;-79
2021/12/11 13:17:51;;;;;;;;;;;10.20;99.90;;;;;;5033634;28;20372;-79
2021/12/11 13:20:21;;;;;;;;;;;10.20;99.90;;;;;;5027710;28;19924;-80
2021/12/11 13:22:47;;;;;;;;;;;10.20;99.90;;;;;;5022375;28;19915;-80
2021/12/11 13:25:19;;;;;;;;;;;10.20;99.90;;;;;;5032470;28;20000;-79
2021/12/11 13:27:46;;;;;;;;;;;10.30;99.90;;;;;;5019933;28;19988;-80
2021/12/11 13:30:14;;;;;;;;;;;10.30;99.90;;;;;;5019973;28;19909;-80
2021/12/11 13:32:39;;;;;;;;;;;10.30;99.90;;;;;;5019864;28;19913;-79
2021/12/11 13:35:08;;;;;;;;;;;10.30;99.90;;;;;;5020071;28;19921;-80
2021/12/11 13:37:33;;;;;;;;;;;10.30;99.90;;;;;;5019926;28;20447;-79
2021/12/11 13:40:00;;;;;;;;;;;10.30;99.90;;;;;;5021957;28;19925;-79
2021/12/11 13:42:27;;;;;;;;;;;10.30;99.90;;;;;;5023732;28;20293;-80
2021/12/11 13:44:56;;;;;;;;;;;10.40;99.90;;;;;;5019215;28;19977;-79
2021/12/11 13:47:24;;;;;;;;;;;10.30;99.90;;;;;;5019786;28;19917;-79
2021/12/11 13:49:51;;;;;;;;;;;10.30;99.90;;;;;;5018492;28;20004;-79
2021/12/11 13:52:18;;;;;;;;;;;10.30;99.90;;;;;;5019671;28;19960;-79
2021/12/11 13:54:44;;;;;;;;;;;10.20;99.90;;;;;;5002114;28;19964;-80
2021/12/11 13:57:16;;;;;;;;;;;10.20;99.90;;;;;;5019387;28;19909;-80
2021/12/11 13:59:42;;;;;;;;;;;10.20;99.90;;;;;;5017957;28;19960;-79
2021/12/11 14:02:08;;;;;;;;;;;10.30;99.90;;;;;;5002029;28;19917;-80
2021/12/11 14:04:36;;;;;;;;;;;10.30;99.90;;;;;;5019434;28;20405;-80
2021/12/11 14:07:11;;;;;;;;;;;10.30;99.90;;;;;;5019302;28;19910;-80
2021/12/11 14:09:39;;;;;;;;;;;10.30;99.90;;;;;;5001680;28;19909;-80
2021/12/11 14:12:05;;;;;;;;;;;10.30;99.90;;;;;;5007356;28;19918;-79
2021/12/11 14:14:31;;;;;;;;;;;10.20;99.90;;;;;;5039888;28;19913;-79
2021/12/11 14:16:57;;;;;;;;;;;10.30;99.90;;;;;;5002103;28;19916;-80
2021/12/11 14:19:22;;;;;;;;;;;10.20;99.90;;;;;;5019497;28;19925;-79
2021/12/11 14:21:48;;;;;;;;;;;10.20;99.90;;;;;;5038770;28;20431;-80
2021/12/11 14:24:14;;;;;;;;;;;10.20;99.90;;;;;;5038778;28;19909;-80
2021/12/11 14:26:41;;;;;;;;;;;10.20;99.90;;;;;;5039042;28;19909;-79
2021/12/11 14:29:08;;;;;;;;;;;10.20;99.90;;;;;;5038606;28;20007;-80
2021/12/11 14:31:34;;;;;;;;;;;10.20;99.90;;;;;;5038847;28;19916;-80
2021/12/11 14:34:01;;;;;;;;;;;10.20;99.90;;;;;;5038719;28;19916;-81
2021/12/11 14:36:28;;;;;;;;;;;10.20;99.90;;;;;;5038624;28;20381;-80
2021/12/11 14:39:02;;;;;;;;;;;10.10;99.90;;;;;;5038542;28;19920;-80
2021/12/11 14:41:31;;;;;;;;;;;10.10;99.90;;;;;;5038565;28;19916;-80
2021/12/11 14:44:02;;;;;;;;;;;10.10;99.90;;;;;;5038303;28;19909;-80
2021/12/11 14:46:30;;;;;;;;;;;10.10;99.90;;;;;;5020721;28;19909;-79
2021/12/11 14:48:57;;;;;;;;;;;10.00;99.90;;;;;;5020510;28;19909;-78
2021/12/11 14:51:23;;;;;;;;;;;10.00;99.90;;;;;;5038331;28;19948;-79